首页
METAR-TAF:

METAR-TAF

机场 :

文尼察, 乌克兰

纬度: 49-14-23N, 经度: 028-36-50E, 海拔: 974米

当前天气观测

该预报发布于43分钟前的17:00 UTC
风速8节,风向,在西转西北东转东北之间变化
温度 17°C
湿度 88%
气压 1008 hPa
能见度10公里或以上
多云层高于2300英尺, 积雨云.
雷暴, 小雨

METAR: UKWW 241700Z 01004MPS 300V060 9999 -TSRA BKN023CB 17/15 Q1008 R13/0///65 TEMPO VRB11G16MPS 2100 -TSRAGR SQ BKN007 BKN015CB

时间: 20:43 (17:43 UTC)

预报

该预报发布于3小时和27分钟前的14:16 UTC
预报有效从24日的 15点(UTC)到 24日的 24点(UTC)
风速10节,风向西北
能见度10公里或以上
多云层高于3000英尺
短暂存在
从 24日的 15点(UTC)到 24日的 17点(UTC)
风速21节,风向多变,有时为31节阵风
能見度: 2100
多云层高于700英尺
多云层高于1500英尺, 积雨云.
雷暴, 小雨, 冰雹, 飑

TAF: UKWW 241416Z 2415/2424 31005MPS 9999 BKN030 TEMPO 2415/2417 VRB11G16MPS 2100 -TSRAGR SQ BKN007 BKN015CB

超过4000个机场的气象观测和天气预报(METAR&TAF报告)。

可查询的气象台以黄色和红色小点在地图上表示。

将鼠标移到小点上方,可查看气象台名称。

然后点击查看天气观测和预报。

如需切换地图:点击带黑十字的绿色按钮放大地图;点击带横线的绿色按钮缩小地图;或者点击绿色箭头查看邻近地区的地图。


METAR-TAF: